Portada
METAR-TAF:

METAR-TAF

Aeroports :

Karachi, Pakistan

latitud: 24-54N, longitud: 067-08E, altitud: 21 m

Observació

L'informe es va fer fa 35 minuts, a les 10:25 UTC
Vent 8 kt del Sud-Oest
Temperatura 38°C
Humitat 9%
Pressió 1006 hPa
Visibilitat: 7000 m

METAR: OPKC 231025Z 22008KT 7000 NSC 38/00 Q1006 NOSIG

Hora: 16:00 (11:00 UTC)

Pronòstic

L'informe es va fer fa 7 hores i 30 minuts, a les 03:30 UTC
Pronòstic vàlid del 23 a les 06 UTC al 24 a les 12 UTC
Vent 5 kt del Oest amb ràfegues de 15 kt
Visibilitat: 6000 m
Temporalment
l' 23 a les 18 UTC al 24 a les 03 UTC
Vent 10 kt del Nord
Visibilitat: 4000 m
calitja

TAF: OPKC 230330Z 2306/2412 27005G15KT 6000 NSC TEMPO 2318/2403 36010KT 4000 HZ NSC

Observacions i pronòstics meteorològics de més de 4000 aeroports (METAR i TAF).

Les estacions disponibles són els punts grocs i vermells al mapa.

Posi el ratolí al punt desitjat per veure el nom de l'estació.

Feu clic per veure les observacions i els pronòstics meteorològics.

Per canviar el mapa: feu clic els botons verds amb una creu de color negre per apropar; al botó verd amb un guió per allunyar la imatge; o en les fletxes verdes per a mapes adjacents.


METAR-TAF: